sensor_id;sensor_type;location;lat;lon;timestamp;P1;durP1;ratioP1;P2;durP2;ratioP2
17935;SDS011;9093;52.062;4.508;2022-10-16T00:00:39;2.70;;;0.97;;
17935;SDS011;9093;52.062;4.508;2022-10-16T00:03:21;1.73;;;0.90;;
17935;SDS011;9093;52.062;4.508;2022-10-16T00:06:01;1.40;;;0.95;;
17935;SDS011;9093;52.062;4.508;2022-10-16T00:08:43;0.98;;;0.70;;
17935;SDS011;9093;52.062;4.508;2022-10-16T00:11:25;1.63;;;0.85;;
17935;SDS011;9093;52.062;4.508;2022-10-16T00:14:09;1.10;;;0.70;;
17935;SDS011;9093;52.062;4.508;2022-10-16T00:16:51;1.92;;;0.98;;
17935;SDS011;9093;52.062;4.508;2022-10-16T00:19:31;3.88;;;0.93;;
17935;SDS011;9093;52.062;4.508;2022-10-16T00:22:11;4.10;;;0.90;;
17935;SDS011;9093;52.062;4.508;2022-10-16T00:24:52;2.23;;;0.80;;
17935;SDS011;9093;52.062;4.508;2022-10-16T00:27:32;0.75;;;0.52;;
17935;SDS011;9093;52.062;4.508;2022-10-16T00:30:13;7.25;;;0.70;;
17935;SDS011;9093;52.062;4.508;2022-10-16T00:32:53;1.00;;;0.60;;
17935;SDS011;9093;52.062;4.508;2022-10-16T00:35:34;1.52;;;0.70;;
17935;SDS011;9093;52.062;4.508;2022-10-16T00:38:14;1.50;;;0.70;;
17935;SDS011;9093;52.062;4.508;2022-10-16T00:40:54;1.70;;;0.77;;
17935;SDS011;9093;52.062;4.508;2022-10-16T00:43:42;1.38;;;0.50;;
17935;SDS011;9093;52.062;4.508;2022-10-16T00:46:34;0.70;;;0.60;;
17935;SDS011;9093;52.062;4.508;2022-10-16T00:49:18;1.27;;;0.60;;
17935;SDS011;9093;52.062;4.508;2022-10-16T00:52:00;0.85;;;0.65;;
17935;SDS011;9093;52.062;4.508;2022-10-16T00:54:41;0.80;;;0.50;;
17935;SDS011;9093;52.062;4.508;2022-10-16T00:57:21;0.73;;;0.47;;
17935;SDS011;9093;52.062;4.508;2022-10-16T01:00:03;0.80;;;0.50;;
17935;SDS011;9093;52.062;4.508;2022-10-16T01:02:51;3.90;;;0.85;;
17935;SDS011;9093;52.062;4.508;2022-10-16T01:05:39;1.25;;;0.60;;
17935;SDS011;9093;52.062;4.508;2022-10-16T01:09:02;1.33;;;0.50;;
17935;SDS011;9093;52.062;4.508;2022-10-16T01:11:49;0.93;;;0.63;;
17935;SDS011;9093;52.062;4.508;2022-10-16T01:14:46;0.88;;;0.55;;
17935;SDS011;9093;52.062;4.508;2022-10-16T01:17:34;0.68;;;0.60;;
17935;SDS011;9093;52.062;4.508;2022-10-16T01:20:31;1.17;;;0.60;;
17935;SDS011;9093;52.062;4.508;2022-10-16T01:29:09;1.70;;;0.70;;
17935;SDS011;9093;52.062;4.508;2022-10-16T01:31:57;2.33;;;0.80;;
17935;SDS011;9093;52.062;4.508;2022-10-16T01:34:43;0.90;;;0.60;;
17935;SDS011;9093;52.062;4.508;2022-10-16T01:40:23;1.00;;;0.70;;
17935;SDS011;9093;52.062;4.508;2022-10-16T01:43:10;4.35;;;1.17;;
17935;SDS011;9093;52.062;4.508;2022-10-16T01:45:54;1.48;;;0.90;;
17935;SDS011;9093;52.062;4.508;2022-10-16T01:48:35;1.48;;;0.77;;
17935;SDS011;9093;52.062;4.508;2022-10-16T01:51:16;4.22;;;1.00;;
17935;SDS011;9093;52.062;4.508;2022-10-16T01:53:59;0.70;;;0.60;;
17935;SDS011;9093;52.062;4.508;2022-10-16T01:56:41;1.80;;;1.10;;
17935;SDS011;9093;52.062;4.508;2022-10-16T01:59:23;1.67;;;0.80;;
17935;SDS011;9093;52.062;4.508;2022-10-16T02:04:58;0.90;;;0.70;;
17935;SDS011;9093;52.062;4.508;2022-10-16T02:07:44;1.30;;;0.88;;
17935;SDS011;9093;52.062;4.508;2022-10-16T02:10:24;8.45;;;1.20;;
17935;SDS011;9093;52.062;4.508;2022-10-16T02:16:17;1.52;;;0.90;;
17935;SDS011;9093;52.062;4.508;2022-10-16T02:18:57;1.60;;;0.90;;
17935;SDS011;9093;52.062;4.508;2022-10-16T02:21:48;0.98;;;0.80;;
17935;SDS011;9093;52.062;4.508;2022-10-16T02:30:27;2.30;;;1.00;;
17935;SDS011;9093;52.062;4.508;2022-10-16T02:33:24;3.40;;;1.10;;
17935;SDS011;9093;52.062;4.508;2022-10-16T02:36:06;0.90;;;0.70;;
17935;SDS011;9093;52.062;4.508;2022-10-16T02:38:47;8.15;;;0.98;;
17935;SDS011;9093;52.062;4.508;2022-10-16T02:41:28;3.00;;;0.85;;
17935;SDS011;9093;52.062;4.508;2022-10-16T02:44:08;1.30;;;0.95;;
17935;SDS011;9093;52.062;4.508;2022-10-16T02:46:48;1.67;;;0.70;;
17935;SDS011;9093;52.062;4.508;2022-10-16T02:49:29;1.00;;;0.82;;
17935;SDS011;9093;52.062;4.508;2022-10-16T02:52:09;2.28;;;1.00;;
17935;SDS011;9093;52.062;4.508;2022-10-16T02:54:49;1.65;;;0.80;;
17935;SDS011;9093;52.062;4.508;2022-10-16T02:57:29;1.15;;;0.82;;
17935;SDS011;9093;52.062;4.508;2022-10-16T03:00:12;2.40;;;0.93;;
17935;SDS011;9093;52.062;4.508;2022-10-16T03:02:58;2.05;;;1.08;;
17935;SDS011;9093;52.062;4.508;2022-10-16T03:05:38;4.13;;;0.80;;
17935;SDS011;9093;52.062;4.508;2022-10-16T03:08:18;1.45;;;0.80;;
17935;SDS011;9093;52.062;4.508;2022-10-16T03:11:03;0.90;;;0.70;;
17935;SDS011;9093;52.062;4.508;2022-10-16T03:13:43;1.17;;;0.70;;
17935;SDS011;9093;52.062;4.508;2022-10-16T03:16:23;1.30;;;1.00;;
17935;SDS011;9093;52.062;4.508;2022-10-16T03:19:04;2.20;;;1.00;;
17935;SDS011;9093;52.062;4.508;2022-10-16T03:21:44;3.08;;;0.70;;
17935;SDS011;9093;52.062;4.508;2022-10-16T03:24:25;5.20;;;1.08;;
17935;SDS011;9093;52.062;4.508;2022-10-16T03:27:05;1.80;;;0.95;;
17935;SDS011;9093;52.062;4.508;2022-10-16T03:29:45;2.30;;;1.02;;
17935;SDS011;9093;52.062;4.508;2022-10-16T03:32:26;1.35;;;0.60;;
17935;SDS011;9093;52.062;4.508;2022-10-16T03:35:08;1.17;;;0.70;;
17935;SDS011;9093;52.062;4.508;2022-10-16T03:37:48;1.58;;;0.65;;
17935;SDS011;9093;52.062;4.508;2022-10-16T03:40:29;1.80;;;0.73;;
17935;SDS011;9093;52.062;4.508;2022-10-16T03:43:12;2.30;;;0.93;;
17935;SDS011;9093;52.062;4.508;2022-10-16T03:45:52;1.95;;;0.93;;
17935;SDS011;9093;52.062;4.508;2022-10-16T03:48:33;3.17;;;0.90;;
17935;SDS011;9093;52.062;4.508;2022-10-16T03:51:13;1.13;;;0.52;;
17935;SDS011;9093;52.062;4.508;2022-10-16T03:53:53;1.02;;;0.77;;
17935;SDS011;9093;52.062;4.508;2022-10-16T03:56:33;0.93;;;0.70;;
17935;SDS011;9093;52.062;4.508;2022-10-16T03:59:14;1.10;;;0.70;;
17935;SDS011;9093;52.062;4.508;2022-10-16T04:01:54;1.23;;;0.70;;
17935;SDS011;9093;52.062;4.508;2022-10-16T04:04:34;0.80;;;0.60;;
17935;SDS011;9093;52.062;4.508;2022-10-16T04:07:15;2.55;;;0.70;;
17935;SDS011;9093;52.062;4.508;2022-10-16T04:09:55;1.27;;;0.90;;
17935;SDS011;9093;52.062;4.508;2022-10-16T04:12:37;4.20;;;0.90;;
17935;SDS011;9093;52.062;4.508;2022-10-16T04:15:17;1.83;;;0.75;;
17935;SDS011;9093;52.062;4.508;2022-10-16T04:17:57;0.90;;;0.60;;
17935;SDS011;9093;52.062;4.508;2022-10-16T04:20:37;1.63;;;0.90;;
17935;SDS011;9093;52.062;4.508;2022-10-16T04:23:18;1.88;;;0.68;;
17935;SDS011;9093;52.062;4.508;2022-10-16T04:25:58;2.70;;;0.70;;
17935;SDS011;9093;52.062;4.508;2022-10-16T04:28:39;1.00;;;0.60;;
17935;SDS011;9093;52.062;4.508;2022-10-16T04:31:20;4.90;;;0.88;;
17935;SDS011;9093;52.062;4.508;2022-10-16T04:34:01;2.05;;;0.90;;
17935;SDS011;9093;52.062;4.508;2022-10-16T04:36:41;2.33;;;0.85;;
17935;SDS011;9093;52.062;4.508;2022-10-16T04:39:21;2.77;;;0.80;;
17935;SDS011;9093;52.062;4.508;2022-10-16T04:42:01;2.30;;;0.83;;
17935;SDS011;9093;52.062;4.508;2022-10-16T04:44:42;9.27;;;0.95;;
17935;SDS011;9093;52.062;4.508;2022-10-16T04:47:22;1.08;;;0.77;;
17935;SDS011;9093;52.062;4.508;2022-10-16T04:50:03;0.90;;;0.73;;
17935;SDS011;9093;52.062;4.508;2022-10-16T04:52:43;8.57;;;0.90;;
17935;SDS011;9093;52.062;4.508;2022-10-16T04:55:24;1.10;;;0.75;;
17935;SDS011;9093;52.062;4.508;2022-10-16T04:58:04;3.03;;;1.10;;
17935;SDS011;9093;52.062;4.508;2022-10-16T05:00:45;1.58;;;0.63;;
17935;SDS011;9093;52.062;4.508;2022-10-16T05:03:26;1.60;;;0.90;;
17935;SDS011;9093;52.062;4.508;2022-10-16T05:06:07;2.65;;;0.88;;
17935;SDS011;9093;52.062;4.508;2022-10-16T05:08:47;7.38;;;0.80;;
17935;SDS011;9093;52.062;4.508;2022-10-16T05:11:27;1.98;;;1.13;;
17935;SDS011;9093;52.062;4.508;2022-10-16T05:14:07;2.15;;;1.02;;
17935;SDS011;9093;52.062;4.508;2022-10-16T05:16:48;1.73;;;0.80;;
17935;SDS011;9093;52.062;4.508;2022-10-16T05:19:28;2.95;;;0.90;;
17935;SDS011;9093;52.062;4.508;2022-10-16T05:22:09;1.77;;;1.03;;
17935;SDS011;9093;52.062;4.508;2022-10-16T05:24:49;7.57;;;0.95;;
17935;SDS011;9093;52.062;4.508;2022-10-16T05:27:29;7.90;;;0.90;;
17935;SDS011;9093;52.062;4.508;2022-10-16T05:30:10;2.80;;;1.63;;
17935;SDS011;9093;52.062;4.508;2022-10-16T05:32:50;2.53;;;1.10;;
17935;SDS011;9093;52.062;4.508;2022-10-16T05:35:31;4.50;;;0.95;;
17935;SDS011;9093;52.062;4.508;2022-10-16T05:38:11;2.17;;;1.00;;
17935;SDS011;9093;52.062;4.508;2022-10-16T05:40:52;1.10;;;0.80;;
17935;SDS011;9093;52.062;4.508;2022-10-16T05:43:36;2.28;;;1.15;;
17935;SDS011;9093;52.062;4.508;2022-10-16T05:46:16;2.07;;;1.10;;
17935;SDS011;9093;52.062;4.508;2022-10-16T05:48:56;3.42;;;1.17;;
17935;SDS011;9093;52.062;4.508;2022-10-16T05:51:37;2.35;;;1.23;;
17935;SDS011;9093;52.062;4.508;2022-10-16T05:54:18;4.28;;;1.52;;
17935;SDS011;9093;52.062;4.508;2022-10-16T05:56:58;4.90;;;1.60;;
17935;SDS011;9093;52.062;4.508;2022-10-16T05:59:39;2.07;;;1.17;;
17935;SDS011;9093;52.062;4.508;2022-10-16T06:02:19;2.33;;;1.42;;
17935;SDS011;9093;52.062;4.508;2022-10-16T06:04:59;2.53;;;1.15;;
17935;SDS011;9093;52.062;4.508;2022-10-16T06:07:39;2.92;;;1.25;;
17935;SDS011;9093;52.062;4.508;2022-10-16T06:10:20;2.15;;;1.10;;
17935;SDS011;9093;52.062;4.508;2022-10-16T06:13:00;0.82;;;0.70;;
17935;SDS011;9093;52.062;4.508;2022-10-16T06:15:41;5.10;;;1.13;;
17935;SDS011;9093;52.062;4.508;2022-10-16T06:18:22;2.83;;;1.30;;
17935;SDS011;9093;52.062;4.508;2022-10-16T06:21:06;4.97;;;1.50;;
17935;SDS011;9093;52.062;4.508;2022-10-16T06:23:49;1.13;;;0.88;;
17935;SDS011;9093;52.062;4.508;2022-10-16T06:26:30;3.33;;;1.27;;
17935;SDS011;9093;52.062;4.508;2022-10-16T06:29:10;4.70;;;1.38;;
17935;SDS011;9093;52.062;4.508;2022-10-16T06:31:50;1.50;;;0.98;;
17935;SDS011;9093;52.062;4.508;2022-10-16T06:34:31;3.17;;;1.05;;
17935;SDS011;9093;52.062;4.508;2022-10-16T06:37:11;5.60;;;1.35;;
17935;SDS011;9093;52.062;4.508;2022-10-16T06:39:51;1.08;;;0.82;;
17935;SDS011;9093;52.062;4.508;2022-10-16T06:42:34;3.10;;;1.10;;
17935;SDS011;9093;52.062;4.508;2022-10-16T06:45:14;1.73;;;0.67;;
17935;SDS011;9093;52.062;4.508;2022-10-16T06:47:55;9.68;;;0.98;;
17935;SDS011;9093;52.062;4.508;2022-10-16T06:50:35;2.47;;;0.70;;
17935;SDS011;9093;52.062;4.508;2022-10-16T06:53:15;2.53;;;1.00;;
17935;SDS011;9093;52.062;4.508;2022-10-16T06:55:56;3.43;;;0.90;;
17935;SDS011;9093;52.062;4.508;2022-10-16T06:58:37;4.38;;;0.95;;
17935;SDS011;9093;52.062;4.508;2022-10-16T07:01:18;2.33;;;1.23;;
17935;SDS011;9093;52.062;4.508;2022-10-16T07:04:01;1.00;;;0.70;;
17935;SDS011;9093;52.062;4.508;2022-10-16T07:06:42;1.25;;;0.80;;
17935;SDS011;9093;52.062;4.508;2022-10-16T07:09:22;1.52;;;1.00;;
17935;SDS011;9093;52.062;4.508;2022-10-16T07:12:02;3.35;;;1.33;;
17935;SDS011;9093;52.062;4.508;2022-10-16T07:14:43;2.72;;;1.48;;
17935;SDS011;9093;52.062;4.508;2022-10-16T07:17:23;7.15;;;1.30;;
17935;SDS011;9093;52.062;4.508;2022-10-16T07:20:03;3.03;;;1.15;;
17935;SDS011;9093;52.062;4.508;2022-10-16T07:22:44;3.53;;;1.20;;
17935;SDS011;9093;52.062;4.508;2022-10-16T07:25:28;1.58;;;0.98;;
17935;SDS011;9093;52.062;4.508;2022-10-16T07:28:08;1.77;;;0.98;;
17935;SDS011;9093;52.062;4.508;2022-10-16T07:30:49;6.72;;;1.20;;
17935;SDS011;9093;52.062;4.508;2022-10-16T07:33:29;3.13;;;1.20;;
17935;SDS011;9093;52.062;4.508;2022-10-16T07:36:10;4.05;;;1.15;;
17935;SDS011;9093;52.062;4.508;2022-10-16T07:38:51;6.13;;;1.42;;
17935;SDS011;9093;52.062;4.508;2022-10-16T07:41:31;3.13;;;1.08;;
17935;SDS011;9093;52.062;4.508;2022-10-16T07:44:16;1.83;;;1.13;;
17935;SDS011;9093;52.062;4.508;2022-10-16T07:46:56;1.70;;;1.17;;
17935;SDS011;9093;52.062;4.508;2022-10-16T07:49:37;2.47;;;1.20;;
17935;SDS011;9093;52.062;4.508;2022-10-16T07:52:17;8.37;;;1.20;;
17935;SDS011;9093;52.062;4.508;2022-10-16T07:54:58;4.10;;;1.40;;
17935;SDS011;9093;52.062;4.508;2022-10-16T07:57:38;1.98;;;1.20;;
17935;SDS011;9093;52.062;4.508;2022-10-16T08:00:18;3.90;;;1.17;;
17935;SDS011;9093;52.062;4.508;2022-10-16T08:02:58;3.03;;;1.08;;
17935;SDS011;9093;52.062;4.508;2022-10-16T08:05:40;4.40;;;1.15;;
17935;SDS011;9093;52.062;4.508;2022-10-16T08:08:20;4.93;;;1.42;;
17935;SDS011;9093;52.062;4.508;2022-10-16T08:11:00;7.03;;;1.58;;
17935;SDS011;9093;52.062;4.508;2022-10-16T08:13:43;2.75;;;1.15;;
17935;SDS011;9093;52.062;4.508;2022-10-16T08:16:23;4.70;;;1.48;;
17935;SDS011;9093;52.062;4.508;2022-10-16T08:19:04;5.05;;;0.95;;
17935;SDS011;9093;52.062;4.508;2022-10-16T08:21:47;1.60;;;0.80;;
17935;SDS011;9093;52.062;4.508;2022-10-16T08:24:27;2.90;;;1.15;;
17935;SDS011;9093;52.062;4.508;2022-10-16T08:27:10;1.73;;;1.00;;
17935;SDS011;9093;52.062;4.508;2022-10-16T08:29:51;9.03;;;1.27;;
17935;SDS011;9093;52.062;4.508;2022-10-16T08:32:31;2.30;;;1.10;;
17935;SDS011;9093;52.062;4.508;2022-10-16T08:35:12;7.90;;;1.45;;
17935;SDS011;9093;52.062;4.508;2022-10-16T08:37:53;2.67;;;1.10;;
17935;SDS011;9093;52.062;4.508;2022-10-16T08:40:34;9.30;;;1.30;;
17935;SDS011;9093;52.062;4.508;2022-10-16T08:49:02;10.82;;;1.23;;
17935;SDS011;9093;52.062;4.508;2022-10-16T08:51:43;1.95;;;0.70;;
17935;SDS011;9093;52.062;4.508;2022-10-16T08:54:35;8.00;;;1.10;;
17935;SDS011;9093;52.062;4.508;2022-10-16T08:57:22;2.33;;;0.90;;
17935;SDS011;9093;52.062;4.508;2022-10-16T09:00:11;2.45;;;1.00;;
17935;SDS011;9093;52.062;4.508;2022-10-16T09:03:03;4.22;;;1.10;;
17935;SDS011;9093;52.062;4.508;2022-10-16T09:05:57;10.55;;;2.15;;
17935;SDS011;9093;52.062;4.508;2022-10-16T09:11:49;4.40;;;1.10;;
17935;SDS011;9093;52.062;4.508;2022-10-16T09:20:57;4.97;;;1.15;;
17935;SDS011;9093;52.062;4.508;2022-10-16T09:23:44;9.25;;;1.10;;
17935;SDS011;9093;52.062;4.508;2022-10-16T09:26:26;3.80;;;1.30;;
17935;SDS011;9093;52.062;4.508;2022-10-16T09:29:08;8.85;;;0.98;;
17935;SDS011;9093;52.062;4.508;2022-10-16T09:31:54;4.47;;;1.08;;
17935;SDS011;9093;52.062;4.508;2022-10-16T09:37:29;5.57;;;2.28;;
17935;SDS011;9093;52.062;4.508;2022-10-16T09:40:24;15.82;;;1.75;;
17935;SDS011;9093;52.062;4.508;2022-10-16T09:48:48;5.13;;;1.20;;
17935;SDS011;9093;52.062;4.508;2022-10-16T09:54:13;3.30;;;1.20;;
17935;SDS011;9093;52.062;4.508;2022-10-16T09:57:04;2.25;;;0.70;;
17935;SDS011;9093;52.062;4.508;2022-10-16T09:59:46;5.13;;;0.90;;
17935;SDS011;9093;52.062;4.508;2022-10-16T10:02:34;20.23;;;1.52;;
17935;SDS011;9093;52.062;4.508;2022-10-16T10:05:22;4.43;;;0.98;;
17935;SDS011;9093;52.062;4.508;2022-10-16T10:08:06;6.90;;;1.17;;
17935;SDS011;9093;52.062;4.508;2022-10-16T10:10:52;18.40;;;1.10;;
17935;SDS011;9093;52.062;4.508;2022-10-16T10:13:34;21.90;;;1.75;;
17935;SDS011;9093;52.062;4.508;2022-10-16T10:16:23;8.95;;;1.20;;
17935;SDS011;9093;52.062;4.508;2022-10-16T10:19:03;3.85;;;1.23;;
17935;SDS011;9093;52.062;4.508;2022-10-16T10:21:44;5.53;;;0.97;;
17935;SDS011;9093;52.062;4.508;2022-10-16T10:24:25;6.07;;;1.05;;
17935;SDS011;9093;52.062;4.508;2022-10-16T10:27:15;9.98;;;1.00;;
17935;SDS011;9093;52.062;4.508;2022-10-16T10:30:00;7.28;;;1.92;;
17935;SDS011;9093;52.062;4.508;2022-10-16T10:33:05;3.50;;;0.88;;
17935;SDS011;9093;52.062;4.508;2022-10-16T10:36:03;3.00;;;1.02;;
17935;SDS011;9093;52.062;4.508;2022-10-16T10:39:13;2.60;;;0.70;;
17935;SDS011;9093;52.062;4.508;2022-10-16T10:47:56;5.73;;;1.13;;
17935;SDS011;9093;52.062;4.508;2022-10-16T10:50:49;7.22;;;1.75;;
17935;SDS011;9093;52.062;4.508;2022-10-16T10:53:38;3.65;;;1.10;;
17935;SDS011;9093;52.062;4.508;2022-10-16T10:56:38;4.05;;;1.10;;
17935;SDS011;9093;52.062;4.508;2022-10-16T11:02:58;5.07;;;1.02;;
17935;SDS011;9093;52.062;4.508;2022-10-16T11:05:44;6.15;;;0.90;;
17935;SDS011;9093;52.062;4.508;2022-10-16T11:08:37;4.88;;;1.10;;
17935;SDS011;9093;52.062;4.508;2022-10-16T11:11:25;8.85;;;1.13;;
17935;SDS011;9093;52.062;4.508;2022-10-16T11:17:13;5.60;;;0.95;;
17935;SDS011;9093;52.062;4.508;2022-10-16T11:20:13;8.10;;;1.65;;
17935;SDS011;9093;52.062;4.508;2022-10-16T11:22:59;3.40;;;0.98;;
17935;SDS011;9093;52.062;4.508;2022-10-16T11:26:00;5.07;;;0.93;;
17935;SDS011;9093;52.062;4.508;2022-10-16T11:28:50;2.40;;;0.77;;
17935;SDS011;9093;52.062;4.508;2022-10-16T11:31:39;11.63;;;1.20;;
17935;SDS011;9093;52.062;4.508;2022-10-16T11:34:26;8.43;;;1.10;;
17935;SDS011;9093;52.062;4.508;2022-10-16T11:37:12;6.95;;;1.10;;
17935;SDS011;9093;52.062;4.508;2022-10-16T11:39:58;5.53;;;0.93;;
17935;SDS011;9093;52.062;4.508;2022-10-16T11:42:57;4.68;;;0.55;;
17935;SDS011;9093;52.062;4.508;2022-10-16T11:45:42;10.73;;;1.10;;
17935;SDS011;9093;52.062;4.508;2022-10-16T11:48:41;7.72;;;1.13;;
17935;SDS011;9093;52.062;4.508;2022-10-16T11:51:41;4.13;;;1.08;;
17935;SDS011;9093;52.062;4.508;2022-10-16T11:57:57;3.10;;;0.73;;
17935;SDS011;9093;52.062;4.508;2022-10-16T12:00:46;3.75;;;0.88;;
17935;SDS011;9093;52.062;4.508;2022-10-16T12:06:47;3.50;;;0.70;;
17935;SDS011;9093;52.062;4.508;2022-10-16T12:09:34;5.30;;;1.30;;
17935;SDS011;9093;52.062;4.508;2022-10-16T12:12:25;3.83;;;0.90;;
17935;SDS011;9093;52.062;4.508;2022-10-16T12:15:27;1.55;;;0.60;;
17935;SDS011;9093;52.062;4.508;2022-10-16T12:18:20;4.65;;;1.20;;
17935;SDS011;9093;52.062;4.508;2022-10-16T12:21:04;7.75;;;0.77;;
17935;SDS011;9093;52.062;4.508;2022-10-16T12:23:50;6.57;;;0.93;;
17935;SDS011;9093;52.062;4.508;2022-10-16T12:26:33;7.93;;;1.02;;
17935;SDS011;9093;52.062;4.508;2022-10-16T12:32:23;1.48;;;0.50;;
17935;SDS011;9093;52.062;4.508;2022-10-16T12:35:18;6.05;;;0.70;;
17935;SDS011;9093;52.062;4.508;2022-10-16T12:38:17;3.30;;;0.77;;
17935;SDS011;9093;52.062;4.508;2022-10-16T12:41:06;9.98;;;1.00;;
17935;SDS011;9093;52.062;4.508;2022-10-16T12:43:52;4.95;;;0.82;;
17935;SDS011;9093;52.062;4.508;2022-10-16T12:51:53;5.67;;;0.90;;
17935;SDS011;9093;52.062;4.508;2022-10-16T12:54:37;4.10;;;0.93;;
17935;SDS011;9093;52.062;4.508;2022-10-16T12:57:29;5.07;;;0.90;;
17935;SDS011;9093;52.062;4.508;2022-10-16T13:00:26;7.68;;;1.10;;
17935;SDS011;9093;52.062;4.508;2022-10-16T13:03:20;4.50;;;0.95;;
17935;SDS011;9093;52.062;4.508;2022-10-16T13:06:27;5.15;;;0.88;;
17935;SDS011;9093;52.062;4.508;2022-10-16T13:09:26;14.90;;;1.20;;
17935;SDS011;9093;52.062;4.508;2022-10-16T13:21:49;5.28;;;1.00;;
17935;SDS011;9093;52.062;4.508;2022-10-16T13:24:45;5.85;;;0.68;;
17935;SDS011;9093;52.062;4.508;2022-10-16T13:28:00;9.23;;;1.75;;
17935;SDS011;9093;52.062;4.508;2022-10-16T13:30:43;6.32;;;1.10;;
17935;SDS011;9093;52.062;4.508;2022-10-16T13:33:37;5.97;;;0.77;;
17935;SDS011;9093;52.062;4.508;2022-10-16T13:39:09;10.13;;;1.50;;
17935;SDS011;9093;52.062;4.508;2022-10-16T13:42:26;5.18;;;1.25;;
17935;SDS011;9093;52.062;4.508;2022-10-16T13:45:03;3.95;;;1.15;;
17935;SDS011;9093;52.062;4.508;2022-10-16T13:47:43;1.98;;;0.80;;
17935;SDS011;9093;52.062;4.508;2022-10-16T13:50:23;5.93;;;1.17;;
17935;SDS011;9093;52.062;4.508;2022-10-16T13:53:04;1.70;;;0.60;;
17935;SDS011;9093;52.062;4.508;2022-10-16T13:55:46;5.07;;;0.82;;
17935;SDS011;9093;52.062;4.508;2022-10-16T13:58:26;1.85;;;0.80;;
17935;SDS011;9093;52.062;4.508;2022-10-16T14:01:17;7.20;;;1.25;;
17935;SDS011;9093;52.062;4.508;2022-10-16T14:04:09;4.47;;;1.07;;
17935;SDS011;9093;52.062;4.508;2022-10-16T14:06:52;5.50;;;1.48;;
17935;SDS011;9093;52.062;4.508;2022-10-16T14:09:33;4.53;;;0.82;;
17935;SDS011;9093;52.062;4.508;2022-10-16T14:12:15;10.20;;;1.42;;
17935;SDS011;9093;52.062;4.508;2022-10-16T14:14:55;2.72;;;0.98;;
17935;SDS011;9093;52.062;4.508;2022-10-16T14:17:38;6.15;;;1.25;;
17935;SDS011;9093;52.062;4.508;2022-10-16T14:20:29;5.47;;;0.60;;
17935;SDS011;9093;52.062;4.508;2022-10-16T14:29:01;5.95;;;0.98;;
17935;SDS011;9093;52.062;4.508;2022-10-16T14:31:56;5.15;;;1.00;;
17935;SDS011;9093;52.062;4.508;2022-10-16T14:34:57;6.90;;;1.13;;
17935;SDS011;9093;52.062;4.508;2022-10-16T14:37:37;9.25;;;0.90;;
17935;SDS011;9093;52.062;4.508;2022-10-16T14:40:17;7.38;;;1.08;;
17935;SDS011;9093;52.062;4.508;2022-10-16T14:42:58;6.53;;;1.42;;
17935;SDS011;9093;52.062;4.508;2022-10-16T14:45:40;7.63;;;0.90;;
17935;SDS011;9093;52.062;4.508;2022-10-16T14:48:22;5.03;;;1.30;;
17935;SDS011;9093;52.062;4.508;2022-10-16T14:51:05;5.20;;;0.90;;
17935;SDS011;9093;52.062;4.508;2022-10-16T14:53:49;3.35;;;1.00;;
17935;SDS011;9093;52.062;4.508;2022-10-16T14:56:30;8.32;;;1.40;;
17935;SDS011;9093;52.062;4.508;2022-10-16T14:59:27;5.18;;;1.70;;
17935;SDS011;9093;52.062;4.508;2022-10-16T15:02:25;4.68;;;1.58;;
17935;SDS011;9093;52.062;4.508;2022-10-16T15:08:00;4.75;;;1.42;;
17935;SDS011;9093;52.062;4.508;2022-10-16T15:10:41;5.57;;;1.15;;
17935;SDS011;9093;52.062;4.508;2022-10-16T15:16:04;1.80;;;0.80;;
17935;SDS011;9093;52.062;4.508;2022-10-16T15:18:44;6.30;;;1.13;;
17935;SDS011;9093;52.062;4.508;2022-10-16T15:21:26;3.55;;;1.33;;
17935;SDS011;9093;52.062;4.508;2022-10-16T15:24:11;5.82;;;1.38;;
17935;SDS011;9093;52.062;4.508;2022-10-16T15:26:52;4.70;;;1.40;;
17935;SDS011;9093;52.062;4.508;2022-10-16T15:29:33;3.10;;;0.98;;
17935;SDS011;9093;52.062;4.508;2022-10-16T15:34:56;3.00;;;1.20;;
17935;SDS011;9093;52.062;4.508;2022-10-16T15:37:36;7.83;;;1.60;;
17935;SDS011;9093;52.062;4.508;2022-10-16T15:40:17;5.00;;;1.75;;
17935;SDS011;9093;52.062;4.508;2022-10-16T15:42:58;6.25;;;0.80;;
17935;SDS011;9093;52.062;4.508;2022-10-16T15:45:39;6.80;;;1.60;;
17935;SDS011;9093;52.062;4.508;2022-10-16T15:48:19;6.05;;;2.10;;
17935;SDS011;9093;52.062;4.508;2022-10-16T15:51:00;5.90;;;1.33;;
17935;SDS011;9093;52.062;4.508;2022-10-16T15:53:44;11.85;;;3.03;;
17935;SDS011;9093;52.062;4.508;2022-10-16T15:56:26;16.85;;;6.22;;
17935;SDS011;9093;52.062;4.508;2022-10-16T15:59:06;15.32;;;4.60;;
17935;SDS011;9093;52.062;4.508;2022-10-16T16:01:46;8.40;;;4.00;;
17935;SDS011;9093;52.062;4.508;2022-10-16T16:04:29;8.40;;;3.60;;
17935;SDS011;9093;52.062;4.508;2022-10-16T16:07:10;11.45;;;3.15;;
17935;SDS011;9093;52.062;4.508;2022-10-16T16:09:51;11.15;;;2.90;;
17935;SDS011;9093;52.062;4.508;2022-10-16T16:12:31;7.50;;;3.17;;
17935;SDS011;9093;52.062;4.508;2022-10-16T16:15:12;8.45;;;2.97;;
17935;SDS011;9093;52.062;4.508;2022-10-16T16:17:52;8.82;;;2.65;;
17935;SDS011;9093;52.062;4.508;2022-10-16T16:20:32;5.88;;;2.58;;
17935;SDS011;9093;52.062;4.508;2022-10-16T16:23:13;11.23;;;3.40;;
17935;SDS011;9093;52.062;4.508;2022-10-16T16:26:03;8.02;;;3.50;;
17935;SDS011;9093;52.062;4.508;2022-10-16T16:28:45;8.93;;;3.28;;
17935;SDS011;9093;52.062;4.508;2022-10-16T16:31:26;9.83;;;3.37;;
17935;SDS011;9093;52.062;4.508;2022-10-16T16:34:08;11.07;;;3.40;;
17935;SDS011;9093;52.062;4.508;2022-10-16T16:36:48;4.25;;;2.83;;
17935;SDS011;9093;52.062;4.508;2022-10-16T16:39:28;14.10;;;3.17;;
17935;SDS011;9093;52.062;4.508;2022-10-16T16:42:09;10.98;;;2.97;;
17935;SDS011;9093;52.062;4.508;2022-10-16T16:44:50;3.58;;;2.25;;
17935;SDS011;9093;52.062;4.508;2022-10-16T16:47:30;4.97;;;1.95;;
17935;SDS011;9093;52.062;4.508;2022-10-16T16:50:10;7.43;;;2.97;;
17935;SDS011;9093;52.062;4.508;2022-10-16T16:52:51;11.10;;;2.72;;
17935;SDS011;9093;52.062;4.508;2022-10-16T16:55:32;5.50;;;2.70;;
17935;SDS011;9093;52.062;4.508;2022-10-16T16:58:12;7.07;;;2.92;;
17935;SDS011;9093;52.062;4.508;2022-10-16T17:00:52;7.13;;;2.33;;
17935;SDS011;9093;52.062;4.508;2022-10-16T17:03:33;10.87;;;2.80;;
17935;SDS011;9093;52.062;4.508;2022-10-16T17:06:15;5.82;;;2.85;;
17935;SDS011;9093;52.062;4.508;2022-10-16T17:08:55;10.45;;;2.60;;
17935;SDS011;9093;52.062;4.508;2022-10-16T17:11:36;10.23;;;2.47;;
17935;SDS011;9093;52.062;4.508;2022-10-16T17:14:16;3.57;;;1.97;;
17935;SDS011;9093;52.062;4.508;2022-10-16T17:16:57;10.13;;;3.47;;
17935;SDS011;9093;52.062;4.508;2022-10-16T17:19:37;6.47;;;2.78;;
17935;SDS011;9093;52.062;4.508;2022-10-16T17:22:18;11.30;;;3.33;;
17935;SDS011;9093;52.062;4.508;2022-10-16T17:24:59;7.82;;;3.10;;
17935;SDS011;9093;52.062;4.508;2022-10-16T17:27:39;10.00;;;3.80;;
17935;SDS011;9093;52.062;4.508;2022-10-16T17:30:19;9.98;;;4.07;;
17935;SDS011;9093;52.062;4.508;2022-10-16T17:33:02;7.00;;;2.90;;
17935;SDS011;9093;52.062;4.508;2022-10-16T17:35:44;8.30;;;3.38;;
17935;SDS011;9093;52.062;4.508;2022-10-16T17:38:25;6.50;;;2.93;;
17935;SDS011;9093;52.062;4.508;2022-10-16T17:41:13;7.78;;;2.90;;
17935;SDS011;9093;52.062;4.508;2022-10-16T17:43:58;6.47;;;2.33;;
17935;SDS011;9093;52.062;4.508;2022-10-16T17:46:39;7.82;;;3.25;;
17935;SDS011;9093;52.062;4.508;2022-10-16T17:49:19;6.87;;;3.33;;
17935;SDS011;9093;52.062;4.508;2022-10-16T17:52:00;5.50;;;2.83;;
17935;SDS011;9093;52.062;4.508;2022-10-16T17:54:42;12.43;;;3.55;;
17935;SDS011;9093;52.062;4.508;2022-10-16T17:57:23;5.88;;;2.53;;
17935;SDS011;9093;52.062;4.508;2022-10-16T18:00:04;16.13;;;3.35;;
17935;SDS011;9093;52.062;4.508;2022-10-16T18:02:47;8.00;;;3.25;;
17935;SDS011;9093;52.062;4.508;2022-10-16T18:05:28;10.10;;;2.80;;
17935;SDS011;9093;52.062;4.508;2022-10-16T18:08:09;9.13;;;3.15;;
17935;SDS011;9093;52.062;4.508;2022-10-16T18:10:49;12.07;;;3.75;;
17935;SDS011;9093;52.062;4.508;2022-10-16T18:13:30;16.35;;;5.88;;
17935;SDS011;9093;52.062;4.508;2022-10-16T18:16:11;14.48;;;5.38;;
17935;SDS011;9093;52.062;4.508;2022-10-16T18:18:53;14.25;;;5.13;;
17935;SDS011;9093;52.062;4.508;2022-10-16T18:21:35;9.32;;;4.35;;